Latest Weather Observations for Christmas Creek

IDW60801

Issued at 8:02 am WST Saturday 6 February 2016 (issued every 30 minutes, with the page automatically refreshed every 10 minutes)

About weather observations | Map of weather stations | Latest weather observations for WA | Other Formats
Station Details ID: 505049 Name: CHRISTMAS CREEK Lat: -22.36 Lon: 119.65 Height: 437.21 m
Data from the previous 72 hours. | See also: Recent months for locations in Western Australia
Date/Time
WST
Temp
°C
App
Temp
°C
Dew
Point
Rel
Hum
%
Delta-T
°C
Wind Press
QNH
hPa
Press
MSL
hPa
Rain
since 9 am
mm
Dir
 
Spd
km/h
Gust
km/h
Spd
kts
Gust
kts
06/08:00am 28.0 27.3 13.1 39 8.9 ESE 9 15 5 8 1013.6 1010.0 0.0
06/07:30am 26.2 26.4 14.6 48 7.1 S 7 11 4 6 1013.4 1009.8 0.0
06/07:00am 24.8 25.7 16.2 58 5.4 SSE 6 9 3 5 1013.4 1009.8 0.0
06/06:30am 23.5 25.7 17.5 69 3.8 S 2 6 1 3 1012.9 1009.4 0.0
06/06:00am 22.4 23.9 17.5 74 3.1 S 6 9 3 5 1012.6 1009.1 0.0
06/05:30am 22.4 23.8 17.3 73 3.2 SSW 6 7 3 4 1012.0 1008.5 0.0
06/05:00am 23.6 25.3 16.1 62 4.6 WNW 2 6 1 3 1011.5 1007.9 0.0
06/04:30am 23.3 24.3 15.4 61 4.8 SW 4 6 2 3 1011.2 1007.6 0.0
06/04:00am 24.1 24.3 14.2 54 6.0 SE 6 13 3 7 1011.1 1007.5 0.0
06/03:30am 26.6 25.6 12.3 41 8.4 NE 9 13 5 7 1010.6 1007.1 0.0
06/03:00am 26.6 26.4 13.0 43 8.1 ENE 6 6 3 3 1010.4 1006.9 0.0
06/02:30am 27.3 27.1 12.9 41 8.6 E 6 9 3 5 1010.3 1006.8 0.0
06/02:00am 26.9 27.4 14.0 45 7.8 ENE 4 6 2 3 1010.3 1006.8 0.0
06/01:30am 27.6 27.6 13.5 41 8.5 E 6 9 3 5 1010.5 1007.0 0.0
06/01:00am 28.6 28.1 12.5 37 9.6 SE 7 9 4 5 1010.7 1007.2 0.0
06/12:30am 29.5 28.6 11.5 33 10.6 ESE 7 13 4 7 1011.1 1007.5 0.0
06/12:00am 29.3 28.3 12.3 35 10.1 ESE 9 15 5 8 1011.3 1007.7 0.0
 
Date/Time
WST
Temp
°C
App
Temp
°C
Dew
Point
Rel
Hum
%
Delta-T
°C
Wind Press
QNH
hPa
Press
MSL
hPa
Rain
since 9 am
mm
Dir
 
Spd
km/h
Gust
km/h
Spd
kts
Gust
kts
05/11:30pm 29.2 28.3 12.6 36 9.9 ESE 9 13 5 7 1011.4 1007.8 0.0
05/11:00pm 29.6 29.1 12.5 35 10.2 ESE 7 9 4 5 1011.8 1008.3 0.0
05/10:30pm 30.4 29.3 11.9 32 11.0 SE 9 13 5 7 1011.8 1008.3 0.0
05/10:00pm 30.8 29.2 11.7 31 11.3 SE 11 15 6 8 1011.8 1008.3 0.0
05/09:30pm 31.2 30.1 12.1 31 11.4 SE 9 15 5 8 1011.6 1008.0 0.0
05/09:00pm 31.9 30.1 12.2 30 11.9 SE 13 20 7 11 1011.3 1007.7 0.0
05/08:30pm 32.3 30.1 12.0 29 12.2 SSE 15 20 8 11 1011.0 1007.4 0.0
05/08:00pm 32.6 31.2 12.3 29 12.3 SE 11 17 6 9 1010.7 1007.2 0.0
05/07:30pm 33.2 31.8 12.2 28 12.7 SSE 11 15 6 8 1010.5 1007.0 0.0
05/07:00pm 34.0 32.1 11.8 26 13.4 SSE 13 19 7 10 1010.0 1006.5 0.0
05/06:30pm 35.1 32.5 12.1 25 14.0 SSE 17 26 9 14 1009.7 1006.2 0.0
05/06:00pm 35.5 32.3 11.8 24 14.4 SSE 20 28 11 15 1009.4 1005.8 0.0
05/05:30pm 36.1 32.6 12.3 24 14.6 SSE 22 30 12 16 1009.2 1005.6 0.0
05/05:00pm 36.4 32.4 11.9 23 14.9 S 24 33 13 18 1009.0 1005.4 0.0
05/04:30pm 37.0 34.1 12.4 23 15.1 S 19 30 10 16 1008.9 1005.3 0.0
05/04:00pm 36.6 33.7 12.8 24 14.7 S 20 32 11 17 1009.0 1005.4 0.0
05/03:30pm 36.6 34.0 12.1 23 15.0 ESE 17 28 9 15 1009.1 1005.5 0.0
05/03:00pm 36.6 34.0 12.1 23 15.0 SE 17 32 9 17 1009.3 1005.7 0.0
05/02:30pm 36.1 35.1 12.3 24 14.6 ESE 9 19 5 10 1009.5 1005.9 0.0
05/02:00pm 35.6 33.2 12.5 24 14.2 ESE 17 30 9 16 1009.8 1006.3 0.0
05/01:30pm 35.5 32.7 12.5 25 14.1 SE 19 30 10 16 1009.9 1006.4 0.0
05/01:00pm 35.7 32.9 13.2 26 13.9 SE 20 33 11 18 1010.3 1006.8 0.0
05/12:30pm 35.4 32.3 13.5 26 13.6 SE 22 32 12 17 1010.7 1007.2 0.0
05/12:00pm 34.5 31.9 13.3 27 13.1 SE 19 32 10 17 1011.2 1007.6 0.0
05/11:30am 34.7 31.5 13.0 27 13.3 ESE 22 35 12 19 1011.8 1008.3 0.0
05/11:00am 33.6 29.3 12.0 27 13.0 ESE 26 41 14 22 1012.3 1008.8 0.0
05/10:30am 32.9 28.6 12.0 28 12.6 ESE 26 39 14 21 1012.8 1009.3 0.0
05/10:00am 32.5 29.0 12.2 29 12.2 ESE 22 39 12 21 1013.1 1009.6 0.0
05/09:30am 31.2 26.9 12.1 31 11.4 ESE 26 37 14 20 1013.6 1010.0 0.0
05/09:00am 30.0 26.1 12.0 33 10.7 ESE 24 35 13 19 1013.7 1010.1 0.0
05/08:30am 29.2 26.1 12.2 35 10.1 ESE 20 30 11 16 1013.9 1010.4 0.0
05/08:00am 28.1 25.1 12.5 38 9.3 ESE 20 28 11 15 1013.9 1010.4 0.0
05/07:30am 27.0 24.3 13.0 42 8.4 ESE 19 28 10 15 1013.7 1010.1 0.0
05/07:00am 26.1 25.5 14.6 49 7.0 SE 11 19 6 10 1013.6 1010.0 0.0
05/06:30am 24.8 24.8 15.1 54 5.9 SSE 9 13 5 7 1013.3 1009.7 0.0
05/06:00am 24.9 24.2 14.4 52 6.4 SE 11 17 6 9 1012.9 1009.4 0.0
05/05:30am 25.2 24.6 14.6 51 6.4 SE 11 15 6 8 1012.6 1009.1 0.0
05/05:00am 25.7 24.7 14.5 50 6.8 SE 13 20 7 11 1012.2 1008.7 0.0
05/04:30am 26.0 25.1 14.8 50 6.8 SE 13 19 7 10 1011.9 1008.4 0.0
05/04:00am 26.2 24.7 15.3 51 6.7 SE 17 24 9 13 1011.8 1008.3 0.0
05/03:30am 25.5 25.8 16.9 59 5.4 SSE 11 15 6 8 1011.6 1008.0 0.0
05/03:00am 26.1 26.4 16.9 57 5.8 SE 11 17 6 9 1011.5 1007.9 0.0
05/02:30am 26.5 26.4 17.0 56 6.0 SSE 13 19 7 10 1011.5 1007.9 0.0
05/02:00am 26.9 27.2 17.1 55 6.2 SE 11 15 6 8 1011.4 1007.8 0.0
05/01:30am 27.0 27.4 17.2 55 6.2 SSE 11 17 6 9 1011.5 1007.9 0.0
05/01:00am 27.4 28.1 17.0 53 6.6 SSE 9 13 5 7 1011.6 1008.0 0.0
05/12:30am 27.7 28.5 17.3 53 6.6 SSE 9 11 5 6 1011.8 1008.3 0.0
05/12:00am 28.1 28.9 17.3 52 6.9 SSE 9 13 5 7 1011.8 1008.3 0.0
 
Date/Time
WST
Temp
°C
App
Temp
°C
Dew
Point
Rel
Hum
%
Delta-T
°C
Wind Press
QNH
hPa
Press
MSL
hPa
Rain
since 9 am
mm
Dir
 
Spd
km/h
Gust
km/h
Spd
kts
Gust
kts
04/11:30pm 28.5 29.3 16.4 48 7.6 S 7 11 4 6 1011.9 1008.4 0.0
04/11:00pm 29.4 30.0 15.9 44 8.5 SE 7 9 4 5 1012.0 1008.5 0.0
04/10:30pm 29.7 30.3 15.8 43 8.7 SE 7 9 4 5 1012.2 1008.7 0.0
04/10:00pm 29.9 30.4 15.6 42 9.0 SE 7 11 4 6 1012.2 1008.7 0.0
04/09:30pm 30.0 30.6 15.7 42 9.0 SSE 7 11 4 6 1012.0 1008.5 0.0
04/09:00pm 30.1 30.8 16.1 42 8.9 SSE 7 9 4 5 1011.9 1008.4 0.0
04/08:30pm 30.7 31.0 15.9 40 9.4 SSE 9 13 5 7 1011.7 1008.1 0.0
04/08:00pm 31.2 31.3 15.6 39 9.8 SSE 9 15 5 8 1011.6 1008.0 0.0
04/07:30pm 31.8 31.3 14.9 36 10.6 S 11 17 6 9 1011.3 1007.7 0.0
04/07:00pm 32.5 32.1 15.1 35 11.0 S 11 17 6 9 1011.0 1007.4 0.0
04/06:30pm 33.3 31.5 14.4 32 11.8 SSE 17 22 9 12 1010.7 1007.2 0.0
04/06:00pm 34.0 32.2 14.5 31 12.2 SSE 17 22 9 12 1010.4 1006.9 0.0
04/05:30pm 34.1 32.2 14.1 30 12.5 SSE 17 26 9 14 1010.2 1006.7 0.0
04/05:00pm 34.8 33.1 13.6 28 13.2 SSE 15 28 8 15 1010.1 1006.6 0.0
04/04:30pm 34.4 32.0 13.8 29 12.8 ESE 19 28 10 15 1010.1 1006.6 0.0
04/04:00pm 34.0 31.9 13.5 29 12.7 SSE 17 28 9 15 1010.1 1006.6 0.0
04/03:30pm 34.3 31.5 13.2 28 13.0 SSE 20 35 11 19 1010.3 1006.8 0.0
04/03:00pm 34.0 32.3 13.5 29 12.7 SE 15 28 8 15 1010.5 1007.0 0.0
04/02:30pm 34.1 32.4 13.5 28 12.7 ESE 15 26 8 14 1010.9 1007.3 0.0
04/02:00pm 34.0 32.3 13.5 29 12.7 ESE 15 26 8 14 1011.2 1007.6 0.0
04/01:30pm 33.2 30.6 13.3 30 12.2 SE 19 33 10 18 1011.6 1008.0 0.0
04/01:00pm 32.5 29.7 12.7 30 12.0 ESE 19 30 10 16 1012.0 1008.5 0.0
04/12:30pm 31.7 28.5 12.0 30 11.8 SE 20 30 11 16 1012.5 1009.0 0.0
04/12:00pm 31.1 28.5 12.0 31 11.4 ESE 17 28 9 15 1013.0 1009.5 0.0
04/11:30am 30.1 26.7 11.1 31 11.1 SE 20 35 11 19 1013.6 1010.0 0.0
04/11:00am 29.6 25.8 11.2 32 10.8 SE 22 32 12 17 1014.1 1010.6 0.0
04/10:30am 29.2 24.9 10.8 32 10.7 SE 24 33 13 18 1014.4 1010.9 0.0
04/10:00am 28.1 23.3 10.3 33 10.2 SE 26 41 14 22 1014.8 1011.3 0.0
04/09:30am 27.2 22.0 10.4 35 9.6 SE 28 37 15 20 1015.0 1011.5 0.0
04/09:00am 26.4 21.5 10.1 36 9.2 SE 26 39 14 21 1015.0 1011.5 0.0
04/08:30am 25.6 20.3 9.8 37 8.9 SE 28 37 15 20 1015.1 1011.6 0.0
04/08:00am 24.6 19.6 10.8 42 7.9 SE 28 39 15 21 1015.0 1011.5 0.0
04/07:30am 23.7 19.9 11.1 45 7.2 SE 22 33 12 18 1014.8 1011.3 0.0
04/07:00am 22.9 19.9 11.9 50 6.3 SE 19 28 10 15 1014.7 1011.2 0.0
04/06:30am 22.2 19.6 11.9 52 5.9 SE 17 26 9 14 1014.6 1011.1 0.0
04/06:00am 21.8 19.7 12.4 55 5.4 SE 15 24 8 13 1014.3 1010.8 0.0
04/05:30am 21.9 19.9 12.7 56 5.3 SSE 15 20 8 11 1014.0 1010.5 0.0
04/05:00am 22.3 20.3 12.8 55 5.5 SSE 15 22 8 12 1013.6 1010.0 0.0
04/04:30am 22.6 20.3 13.1 55 5.6 SSE 17 24 9 13 1013.3 1009.7 0.0
04/04:00am 22.9 21.2 13.7 56 5.5 SSE 15 22 8 12 1013.0 1009.5 0.0
04/03:30am 23.3 21.3 14.0 56 5.6 SSE 17 24 9 13 1012.8 1009.3 0.0
04/03:00am 23.8 21.8 13.9 54 5.9 SSE 17 22 9 12 1012.7 1009.2 0.0
04/02:30am 24.0 22.9 14.4 55 5.8 SSE 13 20 7 11 1012.7 1009.2 0.0
04/02:00am 24.3 23.8 15.0 56 5.7 SSE 11 19 6 10 1012.6 1009.1 0.0
04/01:30am 24.7 23.9 15.1 55 5.9 SE 13 20 7 11 1012.8 1009.3 0.0
04/01:00am 25.2 24.4 15.2 54 6.1 SE 13 19 7 10 1012.8 1009.3 0.0
04/12:30am 25.6 24.8 15.0 52 6.5 SSE 13 19 7 10 1013.0 1009.5 0.0
04/12:00am 25.8 25.3 14.9 51 6.7 SSE 11 15 6 8 1013.3 1009.7 0.0
 
Date/Time
WST
Temp
°C
App
Temp
°C
Dew
Point
Rel
Hum
%
Delta-T
°C
Wind Press
QNH
hPa
Press
MSL
hPa
Rain
since 9 am
mm
Dir
 
Spd
km/h
Gust
km/h
Spd
kts
Gust
kts
03/11:30pm 26.3 25.8 15.0 49 6.9 SE 11 15 6 8 1013.4 1009.8 0.0
03/11:00pm 26.7 26.3 15.1 49 7.1 SE 11 17 6 9 1013.5 1009.9 0.0
03/10:30pm 27.3 26.3 14.7 46 7.7 SE 13 19 7 10 1013.6 1010.0 0.0
03/10:00pm 27.6 27.2 15.3 47 7.6 SSE 11 19 6 10 1013.4 1009.8 0.0
03/09:30pm 27.7 28.0 16.0 49 7.3 SSE 9 15 5 8 1013.0 1009.5 0.0
03/09:00pm 28.5 28.7 14.7 43 8.5 S 7 9 4 5 1012.7 1009.2 0.0
03/08:30pm 29.6 28.0 12.9 35 10.1 SE 13 17 7 9 1012.5 1009.0 0.0
03/08:00pm 30.0 29.0 13.3 36 10.1 SE 11 17 6 9 1012.2 1008.7 0.0
03/07:30pm 30.4 28.3 12.3 33 10.8 SE 15 20 8 11 1011.8 1008.3 0.0
03/07:00pm 30.9 28.4 12.3 32 11.2 SE 17 22 9 12 1011.5 1007.9 0.0
03/06:30pm 31.5 28.3 11.3 29 12.0 SE 19 26 10 14 1011.3 1007.7 0.0
03/06:00pm 31.9 29.1 12.7 31 11.6 SE 19 28 10 15 1011.1 1007.5 0.0
03/05:30pm 32.3 30.2 13.5 32 11.5 SE 17 24 9 13 1010.7 1007.2 0.0
03/05:00pm 32.5 30.0 14.1 32 11.4 SE 20 37 11 20 1010.4 1006.9 0.0
03/04:30pm 32.2 29.7 13.4 32 11.5 SE 19 33 10 18 1010.3 1006.8 0.0
03/04:00pm 32.2 29.3 12.9 31 11.8 SSE 20 32 11 17 1010.4 1006.9 0.0
03/03:30pm 32.3 29.0 14.0 33 11.3 SSE 24 33 13 18 1010.5 1007.0 0.0
03/03:00pm 31.4 28.3 14.5 35 10.5 SSE 24 35 13 19 1010.9 1007.3 0.0
03/02:30pm 31.1 29.0 15.1 38 10.0 SSE 20 30 11 16 1011.1 1007.5 0.0
03/02:00pm 31.3 28.9 15.3 38 10.1 SSE 22 37 12 20 1011.3 1007.7 0.0
03/01:30pm 30.8 28.7 15.2 38 9.8 SE 20 33 11 18 1011.5 1007.9 0.0
03/01:00pm 30.2 27.9 14.7 39 9.6 SE 20 33 11 18 1011.9 1008.4 0.0
03/12:30pm 29.4 26.9 15.1 41 8.9 SE 22 32 12 17 1012.1 1008.6 0.0
03/12:00pm 29.1 26.8 15.6 44 8.5 SE 22 32 12 17 1012.5 1009.0 0.0
03/11:30am 29.0 27.2 15.9 45 8.2 ESE 20 28 11 15 1012.9 1009.4 0.0
03/11:00am 27.8 25.8 15.5 47 7.7 ESE 20 33 11 18 1013.4 1009.8 0.0
03/10:30am 27.1 24.2 15.1 47 7.4 ESE 24 33 13 18 1013.7 1010.1 0.0
03/10:00am 26.7 24.6 15.1 49 7.1 ESE 20 37 11 20 1014.1 1010.6 0.0
03/09:30am 25.9 23.0 15.0 51 6.7 ESE 24 33 13 18 1014.5 1011.0 0.0
03/09:00am 24.9 22.0 15.2 54 5.9 ESE 24 35 13 19 1014.5 1011.0 0.0
03/08:30am 24.5 20.7 14.6 54 6.0 ESE 28 43 15 23 1014.4 1010.9 0.0

Other Formats:

Comma delimited format used in spreadsheet applications
http://www.bom.gov.au/fwo/IDW60801/IDW60801.99737.axf

JavaScript Object Notation format (JSON) in row-major order
http://www.bom.gov.au/fwo/IDW60801/IDW60801.99737.json